Latest Weather Observations for Viewbank

IDV60801

Issued at 2:02 pm EST Monday 25 July 2016 (issued every 30 minutes, with the page automatically refreshed every 10 minutes)

About weather observations | Map of weather stations | Latest weather observations for VIC | Other Formats
Station Details ID: 086068 Name: VIEWBANK Lat: -37.74 Lon: 145.10 Height: 66.1 m
Data from the previous 72 hours. | See also: Recent months at Viewbank
Date/Time
EST
Temp
°C
App
Temp
°C
Dew
Point
°C
Rel
Hum
%
Delta-T
°C
Wind Press
QNH
hPa
Press
MSL
hPa
Rain since
9am
mm
Dir  Spd
km/h
Gust
km/h
Spd
kts
Gust
kts
25/02:00pm 12.9 7.2 5.1 59 3.6 N 24 39 13 21 1005.8 1005.9 0.0
25/01:30pm 12.1 6.4 4.8 61 3.4 N 24 43 13 23 1006.9 1007.0 0.0
25/01:00pm 13.0 7.4 5.2 59 3.6 NNW 24 41 13 22 1007.4 1007.5 0.0
25/12:42pm 12.7 6.3 5.1 60 3.5 NNW 28 46 15 25 1007.8 1007.9 0.0
25/12:30pm 12.8 7.5 5.0 59 3.6 NNW 22 43 12 23 1008.0 1008.1 0.0
25/12:00pm 12.9 8.3 5.8 62 3.4 NNW 19 37 10 20 1008.3 1008.4 0.0
25/11:30am 10.5 6.4 6.3 75 2.0 N 17 35 9 19 1008.8 1008.9 0.0
25/11:00am 10.4 6.3 6.2 75 2.0 N 17 28 9 15 1009.3 1009.4 0.0
25/10:30am 10.6 6.0 5.8 72 2.2 NNW 19 28 10 15 1009.4 1009.5 0.0
25/10:00am 10.4 6.2 5.8 73 2.1 NNW 17 28 9 15 1009.2 1009.3 0.0
25/09:30am 9.7 5.0 5.3 74 2.0 NNW 19 26 10 14 1009.2 1009.3 0.0
25/09:00am 9.1 4.5 5.5 78 1.6 NNW 19 28 10 15 1009.0 1009.1 0.0
25/08:30am 8.7 4.0 5.1 78 1.6 NNW 19 26 10 14 1008.9 1009.0 0.0
25/08:00am 8.6 3.9 5.0 78 1.6 N 19 33 10 18 1008.6 1008.7 0.0
25/07:30am 8.4 4.0 5.0 79 1.5 N 17 28 9 15 1008.1 1008.2 0.0
25/07:00am 8.0 3.6 4.8 80 1.4 N 17 28 9 15 1007.7 1007.8 0.0
25/06:30am 7.9 3.5 4.8 81 1.4 NNE 17 24 9 13 1007.4 1007.5 0.0
25/06:00am 7.8 3.8 4.7 81 1.4 N 15 28 8 15 1007.1 1007.2 0.0
25/05:30am 8.2 3.8 4.6 78 1.6 N 17 32 9 17 1006.8 1006.9 0.0
25/05:00am 8.2 3.8 4.8 79 1.5 N 17 28 9 15 1006.6 1006.7 0.0
25/04:30am 8.1 3.6 4.3 77 1.7 N 17 32 9 17 1006.2 1006.3 0.0
25/04:00am 7.9 3.4 4.3 78 1.6 N 17 24 9 13 1005.9 1006.0 0.0
25/03:30am 7.6 3.1 4.4 80 1.4 N 17 28 9 15 1005.7 1005.8 0.0
25/03:00am 7.3 3.2 4.3 81 1.3 N 15 20 8 11 1005.7 1005.8 0.0
25/02:30am 7.4 4.2 4.9 84 1.1 N 11 19 6 10 1005.7 1005.8 0.0
25/02:00am 7.4 3.8 4.9 84 1.1 N 13 22 7 12 1005.7 1005.8 0.0
25/01:30am 7.2 4.4 5.2 87 0.9 NNE 9 17 5 9 1005.5 1005.6 0.0
25/01:00am 7.5 4.3 5.3 86 1.0 NNE 11 20 6 11 1005.4 1005.5 0.0
25/12:30am 7.7 3.8 5.3 85 1.1 N 15 24 8 13 1005.4 1005.5 0.0
25/12:00am 7.7 4.1 4.8 82 1.3 N 13 19 7 10 1005.5 1005.6 0.0
 
Date/Time
EST
Temp
°C
App
Temp
°C
Dew
Point
°C
Rel
Hum
%
Delta-T
°C
Wind Press
QNH
hPa
Press
MSL
hPa
Rain since
9am
mm
Dir  Spd
km/h
Gust
km/h
Spd
kts
Gust
kts
24/11:30pm 8.1 4.5 4.9 80 1.4 N 13 22 7 12 1005.5 1005.6 0.0
24/11:00pm 8.5 4.5 4.9 78 1.6 N 15 24 8 13 1005.3 1005.4 0.0
24/10:30pm 8.7 4.4 5.1 78 1.6 N 17 26 9 14 1005.2 1005.3 0.0
24/10:00pm 8.4 5.0 5.7 83 1.2 N 13 24 7 13 1005.3 1005.4 0.0
24/09:30pm 8.4 4.2 5.5 82 1.3 N 17 30 9 16 1005.5 1005.6 0.0
24/09:00pm 8.5 4.5 4.9 78 1.6 NNE 15 28 8 15 1005.3 1005.4 0.0
24/08:30pm 8.7 4.6 4.5 75 1.9 NNE 15 22 8 12 1005.3 1005.4 0.0
24/08:00pm 8.9 3.9 4.5 74 2.0 N 20 35 11 19 1005.5 1005.6 0.0
24/07:30pm 9.2 5.6 5.2 76 1.8 N 13 24 7 13 1005.5 1005.6 0.0
24/07:00pm 8.5 5.7 5.1 79 1.5 NE 9 17 5 9 1005.0 1005.1 0.0
24/06:30pm 8.4 5.5 4.8 78 1.6 NE 9 17 5 9 1005.1 1005.2 0.0
24/06:00pm 8.8 5.1 4.6 75 1.9 NNE 13 24 7 13 1005.0 1005.1 0.0
24/05:30pm 9.4 5.7 4.4 71 2.2 NNE 13 28 7 15 1005.2 1005.3 0.0
24/05:00pm 9.7 6.4 4.5 70 2.3 NNE 11 24 6 13 1005.7 1005.8 0.0
24/04:30pm 9.5 5.8 4.7 72 2.1 NNE 13 26 7 14 1006.0 1006.1 0.0
24/04:00pm 9.5 5.1 4.7 72 2.2 NNE 17 32 9 17 1006.0 1006.1 0.0
24/03:30pm 9.6 4.6 4.6 71 2.2 N 20 37 11 20 1006.5 1006.6 0.0
24/03:00pm 9.7 4.3 4.5 70 2.3 N 22 35 12 19 1007.0 1007.1 0.0
24/02:30pm 10.2 5.1 4.1 66 2.7 NNW 20 43 11 23 1007.1 1007.2 0.0
24/02:00pm 10.4 5.4 4.8 68 2.5 N 20 39 11 21 1007.3 1007.4 0.0
24/01:30pm 9.8 3.5 4.0 67 2.6 NNE 26 43 14 23 1007.5 1007.6 0.0
24/01:00pm 10.1 4.3 4.3 67 2.6 NNE 24 43 13 23 1007.9 1008.0 0.0
24/12:30pm 9.9 4.9 4.5 69 2.4 NNE 20 39 11 21 1008.4 1008.5 0.0
24/12:00pm 9.1 1.6 3.3 67 2.5 N 32 54 17 29 1008.8 1008.9 0.0
24/11:31am 9.1 2.5 4.1 71 2.2 N 28 48 15 26 1009.5 1009.6 0.0
24/11:30am 9.2 3.0 4.2 71 2.2 N 26 48 14 26 1009.4 1009.5 0.0
24/11:00am 9.1 2.4 3.5 68 2.4 N 28 46 15 25 1010.1 1010.2 0.0
24/10:30am 8.3 1.6 3.6 72 2.0 N 28 52 15 28 1010.5 1010.6 0.0
24/10:24am 8.3 1.6 3.6 72 2.0 N 28 52 15 28 1010.5 1010.6 0.0
24/10:00am 7.9 2.3 3.4 73 1.9 N 22 39 12 21 1010.3 1010.4 0.0
24/09:30am 6.9 1.7 3.3 78 1.5 N 20 35 11 19 1010.5 1010.6 0.0
24/09:00am 6.3 1.7 3.5 82 1.2 N 17 32 9 17 1010.6 1010.7 1.6
24/08:30am 5.7 2.1 2.9 82 1.2 N 11 26 6 14 1010.8 1010.9 1.6
24/08:00am 4.7 2.0 2.6 86 0.9 NNE 6 9 3 5 1010.9 1011.0 1.6
24/07:30am 4.1 1.4 2.8 91 0.5 NNE 6 13 3 7 1010.8 1010.9 1.6
24/07:00am 3.9 1.2 2.6 91 0.5 NE 6 7 3 4 1011.1 1011.2 1.6
24/06:30am 3.9 1.2 2.6 91 0.5 NE 6 9 3 5 1010.9 1011.0 1.6
24/06:00am 3.8 1.0 2.3 90 0.6 NNE 6 13 3 7 1011.0 1011.1 1.6
24/05:30am 4.0 1.6 2.2 88 0.7 NNE 4 7 2 4 1011.1 1011.2 1.6
24/05:00am 4.4 1.0 2.1 85 0.9 N 9 13 5 7 1011.4 1011.5 1.6
24/04:30am 4.9 1.2 2.1 82 1.1 N 11 17 6 9 1011.8 1011.9 1.6
24/04:00am 5.0 0.9 2.0 81 1.2 N 13 20 7 11 1012.0 1012.1 1.6
24/03:30am 4.8 0.7 2.2 83 1.0 N 13 19 7 10 1012.1 1012.2 1.6
24/03:00am 4.5 1.1 2.0 84 1.0 N 9 13 5 7 1012.3 1012.3 1.6
24/02:30am 4.6 1.6 2.1 84 1.0 NNE 7 13 4 7 1012.4 1012.4 1.6
24/02:00am 4.8 1.5 2.2 83 1.0 N 9 20 5 11 1012.5 1012.5 1.6
24/01:30am 5.4 2.0 2.1 79 1.3 NNW 9 17 5 9 1012.4 1012.4 1.6
24/01:00am 5.6 1.9 2.1 78 1.4 NNW 11 19 6 10 1012.5 1012.5 1.6
24/12:30am 5.5 1.8 2.5 81 1.2 NNW 11 17 6 9 1012.6 1012.6 1.6
24/12:00am 5.9 2.3 2.9 81 1.2 NNW 11 17 6 9 1012.9 1012.9 1.6
 
Date/Time
EST
Temp
°C
App
Temp
°C
Dew
Point
°C
Rel
Hum
%
Delta-T
°C
Wind Press
QNH
hPa
Press
MSL
hPa
Rain since
9am
mm
Dir  Spd
km/h
Gust
km/h
Spd
kts
Gust
kts
23/11:30pm 6.0 2.8 3.2 82 1.2 NNW 9 13 5 7 1013.1 1013.1 1.6
23/11:00pm 6.5 3.8 3.5 81 1.3 NW 7 13 4 7 1013.3 1013.3 1.6
23/10:30pm 6.8 3.7 3.8 81 1.3 NW 9 11 5 6 1013.3 1013.3 1.6
23/10:00pm 7.1 4.5 4.1 81 1.3 NW 7 15 4 8 1013.2 1013.2 1.6
23/09:30pm 7.3 3.6 4.6 83 1.2 NW 13 20 7 11 1013.1 1013.1 1.6
23/09:00pm 7.1 3.1 4.9 86 1.0 NW 15 22 8 12 1013.1 1013.1 1.6
23/08:30pm 6.9 4.2 5.4 90 0.7 WNW 9 15 5 8 1012.9 1012.9 1.6
23/08:00pm 6.6 4.3 5.6 93 0.4 WNW 7 15 4 8 1012.6 1012.6 1.6
23/07:30pm 7.0 2.7 5.3 89 0.8 W 17 28 9 15 1012.4 1012.4 1.4
23/07:00pm 7.5 4.5 4.3 80 1.4 WNW 9 19 5 10 1012.1 1012.2 1.2
23/06:30pm 7.1 3.5 4.8 85 1.0 W 13 26 7 14 1011.6 1011.7 1.2
23/06:00pm 7.9 4.1 4.1 77 1.7 WNW 13 28 7 15 1011.2 1011.3 1.2
23/05:30pm 7.9 3.3 3.9 76 1.7 W 17 26 9 14 1010.7 1010.8 1.2
23/05:00pm 7.7 4.0 4.5 80 1.4 WNW 13 28 7 15 1010.2 1010.3 1.2
23/04:30pm 7.0 4.1 6.3 95 0.3 W 11 19 6 10 1009.9 1010.0 1.2
23/04:00pm 8.0 4.4 4.9 81 1.4 WNW 13 20 7 11 1009.6 1009.7 0.4
23/03:30pm 7.4 1.8 5.4 87 0.9 W 24 44 13 24 1009.4 1009.5 0.4
23/03:00pm 9.0 3.3 3.0 66 2.6 WNW 22 43 12 23 1008.6 1008.7 0.0
23/02:30pm 7.9 0.9 4.1 77 1.7 W 30 52 16 28 1008.1 1008.2 0.0
23/02:05pm 9.7 2.6 1.6 57 3.4 W 28 48 15 26 1007.4 1007.5 0.0
23/02:00pm 9.8 3.1 1.2 55 3.6 W 26 48 14 26 1007.5 1007.6 0.0
23/01:44pm 10.1 2.9 0.4 51 4.0 W 28 46 15 25 1007.2 1007.3 0.0
23/01:30pm 10.6 4.7 1.9 55 3.7 W 22 39 12 21 1007.3 1007.4 0.0
23/01:00pm 10.3 3.7 2.2 57 3.5 W 26 44 14 24 1007.2 1007.3 0.0
23/12:35pm 9.6 2.5 1.5 57 3.4 W 28 48 15 26 1007.2 1007.3 0.0
23/12:30pm 10.0 4.0 3.1 62 3.0 W 24 35 13 19 1007.2 1007.3 0.0
23/12:00pm 9.2 2.6 1.9 60 3.1 W 26 43 14 23 1006.8 1006.9 0.0
23/11:30am 8.5 1.8 1.4 61 2.9 W 26 46 14 25 1007.2 1007.3 0.0
23/11:01am 8.1 0.9 1.0 61 2.9 WSW 28 46 15 25 1007.0 1007.1 0.0
23/11:00am 8.1 1.3 1.0 61 2.9 WSW 26 46 14 25 1007.0 1007.1 0.0
23/10:32am 8.9 1.5 -0.4 52 3.7 W 28 54 15 29 1006.3 1006.4 0.0
23/10:30am 9.1 2.2 0.0 53 3.6 W 26 41 14 22 1006.3 1006.4 0.0
23/10:16am 9.0 1.8 0.7 56 3.4 W 28 48 15 26 1005.8 1005.9 0.0
23/10:00am 8.8 2.0 0.5 56 3.4 W 26 41 14 22 1005.5 1005.6 0.0
23/09:30am 8.4 3.1 1.6 62 2.8 W 19 32 10 17 1005.1 1005.2 0.0
23/09:00am 7.9 2.6 1.7 65 2.6 W 19 30 10 16 1004.5 1004.6 2.2
23/08:30am 7.3 3.0 3.4 76 1.7 W 15 28 8 15 1004.0 1004.1 2.2
23/08:00am 6.8 2.4 4.5 85 1.0 W 17 28 9 15 1003.4 1003.5 2.2
23/07:30am 6.6 1.9 5.1 90 0.7 W 19 32 10 17 1003.0 1003.1 2.2
23/07:00am 7.7 1.5 4.5 80 1.4 W 26 43 14 23 1002.1 1002.2 2.0
23/06:30am 8.1 2.4 4.9 80 1.4 W 24 41 13 22 1001.0 1001.0 2.0
23/06:00am 8.4 2.3 4.6 77 1.7 W 26 46 14 25 1000.2 1000.2 2.0
23/05:55am 8.5 2.0 4.5 76 1.8 W 28 46 15 25 1000.1 1000.1 2.0
23/05:45am 8.5 2.7 4.5 76 1.8 W 24 46 13 25 999.7 999.7 2.0
23/05:30am 8.4 4.5 5.2 80 1.4 W 15 28 8 15 999.3 999.3 2.0
23/05:00am 8.6 3.7 5.0 78 1.6 W 20 50 11 27 998.5 998.5 2.0
23/04:30am 8.5 3.8 5.1 79 1.5 W 19 32 10 17 997.9 997.9 2.0
23/04:00am 8.3 2.8 5.8 84 1.1 W 24 35 13 19 997.3 997.3 2.0
23/03:30am 8.7 2.3 5.1 78 1.6 W 28 46 15 25 996.7 996.7 2.0
23/03:02am 9.5 3.0 4.7 72 2.1 W 28 50 15 27 995.9 996.0 2.0
23/03:00am 9.5 3.4 4.7 72 2.2 W 26 50 14 27 995.9 996.0 2.0
23/02:39am 10.0 3.4 4.0 66 2.7 WNW 28 46 15 25 995.3 995.4 2.0
23/02:30am 9.9 5.0 4.1 67 2.6 WNW 19 32 10 17 995.0 995.1 2.0
23/02:00am 9.7 4.8 4.3 69 2.4 NW 19 33 10 18 994.1 994.2 2.0
23/01:30am 9.7 4.8 5.3 74 2.0 NW 20 32 11 17 993.8 993.9 2.0
23/01:00am 10.3 6.3 6.8 79 1.7 NW 17 28 9 15 993.8 993.9 2.0
23/12:30am 9.4 7.5 8.9 97 0.2 NW 9 17 5 9 994.0 994.1 2.0
23/12:00am 9.5 5.9 8.3 92 0.6 W 17 24 9 13 993.7 993.8 2.0
 
Date/Time
EST
Temp
°C
App
Temp
°C
Dew
Point
°C
Rel
Hum
%
Delta-T
°C
Wind Press
QNH
hPa
Press
MSL
hPa
Rain since
9am
mm
Dir  Spd
km/h
Gust
km/h
Spd
kts
Gust
kts
22/11:30pm 10.8 8.3 8.2 84 1.3 NW 11 15 6 8 993.5 993.6 2.0
22/11:00pm 10.6 8.1 9.7 94 0.5 NW 13 19 7 10 993.8 993.9 2.0
22/10:30pm 10.7 7.0 10.1 96 0.3 NNW 20 30 11 16 993.5 993.6 2.0
22/10:00pm 11.3 8.0 9.7 90 0.8 NNW 17 28 9 15 993.8 993.9 1.2
22/09:30pm 12.1 9.0 8.8 80 1.7 NNW 15 22 8 12 994.0 994.1 1.0
22/09:00pm 11.1 9.4 10.0 93 0.6 N 9 15 5 8 994.5 994.6 1.0
22/08:30pm 10.8 10.6 10.3 97 0.3 NNE 2 7 1 4 995.1 995.2 1.0
22/08:00pm 10.6 10.8 10.4 99 0.1 CALM 0 0 0 0 994.9 995.0 1.0
22/07:30pm 11.0 9.7 9.9 93 0.6 N 7 11 4 6 995.4 995.5 0.8
22/07:00pm 11.0 9.5 9.1 88 1.0 NNW 7 11 4 6 995.5 995.6 0.8
22/06:30pm 11.4 6.6 7.5 77 1.9 WSW 22 37 12 20 996.0 996.1 0.8
22/06:00pm 12.5 10.2 7.6 72 2.4 NW 9 13 5 7 995.6 995.7 0.8
22/05:30pm 12.5 9.9 7.6 72 2.4 NNW 11 15 6 8 995.4 995.5 0.8
22/05:00pm 12.4 9.4 7.7 73 2.3 NW 13 20 7 11 995.1 995.2 0.8
22/04:30pm 12.5 9.4 7.4 71 2.5 NW 13 24 7 13 995.1 995.2 0.8
22/04:00pm 12.2 8.6 8.3 77 1.9 NW 17 30 9 16 995.2 995.3 0.8
22/03:30pm 11.9 8.0 9.3 84 1.3 WNW 20 35 11 19 995.5 995.6 0.8
22/03:00pm 12.6 6.4 7.7 72 2.4 W 30 59 16 32 995.5 995.6 0.2
22/02:55pm 15.0 10.0 6.3 56 4.2 WNW 22 57 12 31 995.2 995.3 0.0
22/02:30pm 17.1 12.6 8.5 57 4.4 NW 22 44 12 24 994.8 994.9 0.0
22/02:21pm 17.1 11.5 8.8 58 4.3 NW 28 46 15 25 994.7 994.8 0.0

Other Formats:

Comma delimited format used in spreadsheet applications
http://www.bom.gov.au/fwo/IDV60801/IDV60801.95874.axf

JavaScript Object Notation format (JSON) in row-major order
http://www.bom.gov.au/fwo/IDV60801/IDV60801.95874.json